Opa Locka, Florida
Current Conditions -  °F | °C
As of 11:53 AM on Thursday 23 Oct 2014 (Local Time) from KOPF Reporting Station
Clear Clear  
Wind Chill: 79°   Ceiling: Unl
Heat Index: 82°   Visibility: 10mi
Dew Point: 73°   Wind: 9mph
Humidity: 82%   Direction: 40°NE
Pressure: 29.94"   Gusts: NA
Location:  25.92°N, 80.28°W
Report Text: KOPF 231553Z 04008KT 10SM CLR 26/23 A2994 RMK AO2 RAE31 SLP140 P0001 T02610228
Loading
Personal Weather Stations






























Interactive Weather Map
Tropical Storm Tracking
New forecast layout! Learn more

10-Day Weather Forecast

Advertisements
Track Severe Weather on mobile